Time;durP1;ratioP1;P1;durP2;ratioP2;P2;SDS_P1;SDS_P2;PMS_P1;PMS_P2;Temp;Humidity;BMP_temperature;BMP_pressure;BME280_temperature;BME280_humidity;BME280_pressure;Samples;Min_cycle;Max_cycle;Signal;HPM_P1;HPM_P2
2021/01/21 00:00:59;;;;;;;5.47;1.75;;;11.50;99.90;;;;;;5057379;28;20055;-59
2021/01/21 00:03:26;;;;;;;4.75;1.80;;;;;;;;;;5053959;28;20028;-59
2021/01/21 00:05:52;;;;;;;6.93;1.95;;;;;;;;;;5046032;28;20124;-59
2021/01/21 00:08:18;;;;;;;5.10;1.60;;;;;;;;;;5052189;28;20029;-59
2021/01/21 00:10:44;;;;;;;5.22;1.63;;;;;;;;;;5056277;28;20028;-59
2021/01/21 00:13:10;;;;;;;6.00;2.08;;;;;;;;;;5039181;28;20091;-59
2021/01/21 00:15:35;;;;;;;6.22;1.90;;;10.60;99.90;;;;;;5036629;28;20057;-59
2021/01/21 00:18:01;;;;;;;5.55;1.70;;;10.90;99.90;;;;;;5042554;28;20055;-59
2021/01/21 00:20:27;;;;;;;7.18;1.95;;;10.70;99.90;;;;;;5052136;28;20479;-59
2021/01/21 00:22:53;;;;;;;8.88;2.05;;;10.70;99.90;;;;;;5051532;28;20082;-59
2021/01/21 00:25:18;;;;;;;7.45;1.70;;;10.80;99.90;;;;;;5051264;28;20037;-59
2021/01/21 00:27:44;;;;;;;5.50;1.55;;;10.70;99.90;;;;;;5033880;28;20037;-59
2021/01/21 00:30:10;;;;;;;7.22;1.77;;;10.70;99.90;;;;;;5048013;28;20024;-59
2021/01/21 00:32:36;;;;;;;6.32;1.83;;;10.70;99.90;;;;;;5057114;28;20431;-59
2021/01/21 00:35:01;;;;;;;5.10;1.70;;;10.70;99.90;;;;;;5061074;28;20017;-58
2021/01/21 00:37:27;;;;;;;6.85;1.77;;;10.70;99.90;;;;;;5048243;28;20095;-59
2021/01/21 00:39:53;;;;;;;4.72;1.35;;;10.80;99.90;;;;;;5049717;28;20029;-59
2021/01/21 00:42:18;;;;;;;6.95;1.70;;;10.70;99.90;;;;;;5050908;28;20074;-59
2021/01/21 00:44:44;;;;;;;4.18;1.50;;;10.80;99.90;;;;;;5035767;28;20026;-59
2021/01/21 00:47:09;;;;;;;5.55;1.80;;;10.80;99.90;;;;;;5045930;28;20028;-59
2021/01/21 00:49:35;;;;;;;6.88;1.88;;;10.80;99.90;;;;;;5046716;28;20013;-59
2021/01/21 00:52:01;;;;;;;9.35;2.25;;;;;;;;;;5047947;28;20044;-59
2021/01/21 00:54:27;;;;;;;6.72;1.70;;;;;;;;;;5048280;28;20495;-59
2021/01/21 00:56:53;;;;;;;5.13;1.42;;;;;;;;;;5042582;28;20036;-59
2021/01/21 00:59:18;;;;;;;6.57;1.90;;;10.80;99.60;;;;;;5036488;28;20037;-59
2021/01/21 01:01:44;;;;;;;8.45;1.90;;;11.70;99.90;;;;;;5050461;28;20032;-59
2021/01/21 01:04:10;;;;;;;4.97;1.70;;;10.60;99.90;;;;;;5045607;28;20524;-59
2021/01/21 01:06:35;;;;;;;5.43;1.52;;;10.60;99.90;;;;;;5042899;28;20469;-59
2021/01/21 01:09:01;;;;;;;5.68;1.75;;;10.70;99.90;;;;;;5040240;28;20029;-59
2021/01/21 01:11:26;;;;;;;6.40;1.70;;;10.70;99.90;;;;;;5050226;28;20041;-59
2021/01/21 01:13:52;;;;;;;5.07;1.40;;;9.70;99.90;;;;;;5031979;28;20026;-59
2021/01/21 01:16:18;;;;;;;4.28;1.52;;;;;;;;;;5046063;28;20400;-59
2021/01/21 01:18:43;;;;;;;6.95;1.52;;;10.60;99.70;;;;;;5048610;28;20024;-59
2021/01/21 01:21:09;;;;;;;4.25;1.48;;;10.60;99.80;;;;;;5050504;28;20124;-59
2021/01/21 01:23:35;;;;;;;6.95;1.92;;;10.70;99.90;;;;;;5047226;28;20025;-59
2021/01/21 01:26:00;;;;;;;7.43;1.73;;;10.60;99.80;;;;;;5043063;28;20037;-59
2021/01/21 01:28:26;;;;;;;4.63;1.70;;;10.70;99.90;;;;;;5045513;28;20048;-59
2021/01/21 01:30:53;;;;;;;5.72;1.80;;;10.60;99.70;;;;;;5055930;28;20082;-59
2021/01/21 01:33:18;;;;;;;5.95;1.65;;;10.60;99.40;;;;;;5045803;28;20048;-59
2021/01/21 01:35:44;;;;;;;5.68;1.80;;;10.60;99.60;;;;;;5047155;28;20033;-59
2021/01/21 01:38:09;;;;;;;6.72;2.03;;;10.70;99.90;;;;;;5042643;28;20456;-59
2021/01/21 01:40:35;;;;;;;6.50;1.83;;;10.60;99.60;;;;;;5045284;28;20036;-59
2021/01/21 01:43:01;;;;;;;6.40;1.65;;;10.60;99.90;;;;;;5055598;28;20028;-59
2021/01/21 01:45:26;;;;;;;4.60;1.60;;;10.50;99.80;;;;;;5046388;28;20051;-59
2021/01/21 01:47:52;;;;;;;4.00;1.58;;;10.50;99.50;;;;;;5045495;28;20025;-59
2021/01/21 01:50:18;;;;;;;4.60;1.50;;;9.80;99.90;;;;;;5050738;28;20048;-59
2021/01/21 01:52:44;;;;;;;11.02;1.80;;;10.60;99.70;;;;;;5046403;28;20040;-59
2021/01/21 01:55:14;;;;;;;6.00;1.80;;;10.60;99.30;;;;;;5051926;28;20487;-59
2021/01/21 01:57:40;;;;;;;3.47;1.33;;;10.70;99.70;;;;;;5044515;28;20094;-59
2021/01/21 02:00:07;;;;;;;4.10;1.15;;;10.60;99.40;;;;;;5042924;28;20079;-59
2021/01/21 02:02:32;;;;;;;4.68;1.45;;;11.40;99.90;;;;;;5047476;28;20036;-59
2021/01/21 02:05:00;;;;;;;8.65;2.00;;;10.60;99.30;;;;;;5048930;28;20029;-59
2021/01/21 02:07:25;;;;;;;4.05;1.50;;;10.60;99.90;;;;;;5045300;28;20067;-59
2021/01/21 02:09:52;;;;;;;4.78;1.80;;;11.40;99.90;;;;;;5045542;28;20053;-59
2021/01/21 02:12:44;;;;;;;4.72;1.70;;;10.60;99.00;;;;;;5046482;28;20404;-59
2021/01/21 02:15:59;;;;;;;5.53;1.38;;;10.60;99.20;;;;;;5051703;28;20029;-59
2021/01/21 02:18:36;;;;;;;5.15;1.65;;;10.50;99.70;;;;;;5036974;28;20092;-59
2021/01/21 02:21:40;;;;;;;3.83;1.45;;;10.60;98.90;;;;;;5043193;28;20021;-59
2021/01/21 02:24:45;;;;;;;3.80;1.52;;;10.60;99.00;;;;;;5034101;28;20040;-59
2021/01/21 02:27:13;;;;;;;6.30;1.80;;;10.70;98.90;;;;;;5031617;28;20492;-59
2021/01/21 02:29:43;;;;;;;5.82;1.80;;;;;;;;;;5039064;28;20035;-59
2021/01/21 02:32:13;;;;;;;7.25;2.00;;;10.70;98.30;;;;;;5026563;28;20061;-58
2021/01/21 02:35:04;;;;;;;7.45;1.80;;;11.10;98.90;;;;;;5044981;28;20078;-59
2021/01/21 02:37:30;;;;;;;5.18;1.73;;;10.70;99.00;;;;;;5049434;28;20049;-59
2021/01/21 02:39:59;;;;;;;6.68;1.50;;;10.70;98.20;;;;;;5045946;28;20092;-59
2021/01/21 02:42:26;;;;;;;4.50;1.75;;;10.80;98.50;;;;;;5052741;28;20491;-59
2021/01/21 02:44:52;;;;;;;4.57;1.70;;;10.80;98.00;;;;;;5043802;28;20036;-59
2021/01/21 02:47:21;;;;;;;4.55;1.40;;;10.80;97.80;;;;;;5055462;28;20033;-59
2021/01/21 02:49:51;;;;;;;8.13;2.00;;;10.80;97.90;;;;;;5037824;28;20025;-59
2021/01/21 02:52:36;;;;;;;16.83;1.65;;;11.00;97.50;;;;;;5039212;28;20040;-59
2021/01/21 02:55:24;;;;;;;4.53;1.30;;;10.90;97.90;;;;;;5045749;28;20033;-59
2021/01/21 02:58:01;;;;;;;5.22;1.50;;;10.80;97.90;;;;;;5048040;28;20030;-59
2021/01/21 03:00:28;;;;;;;7.13;1.85;;;12.00;98.20;;;;;;5042178;28;20025;-59
2021/01/21 03:03:00;;;;;;;5.57;1.48;;;11.10;97.30;;;;;;5041186;28;20033;-59
2021/01/21 03:05:28;;;;;;;3.78;1.48;;;11.00;97.30;;;;;;5041751;28;20036;-59
2021/01/21 03:07:55;;;;;;;6.50;1.70;;;11.10;99.00;;;;;;5044917;28;20059;-59
2021/01/21 03:10:22;;;;;;;4.63;1.27;;;11.00;97.50;;;;;;5044150;28;20120;-59
2021/01/21 03:12:55;;;;;;;5.75;1.77;;;10.60;99.20;;;;;;5048258;28;20541;-59
2021/01/21 03:15:21;;;;;;;5.78;1.80;;;;;;;;;;5041883;28;20025;-59
2021/01/21 03:17:48;;;;;;;6.30;1.67;;;;;;;;;;5044771;28;20465;-59
2021/01/21 03:20:14;;;;;;;6.13;1.75;;;11.10;96.80;;;;;;5049666;28;20031;-59
2021/01/21 03:22:40;;;;;;;4.57;1.60;;;11.30;98.80;;;;;;5050086;28;20037;-59
2021/01/21 03:25:06;;;;;;;5.05;1.40;;;11.10;98.70;;;;;;5050991;28;20021;-59
2021/01/21 03:27:32;;;;;;;5.13;1.60;;;11.30;98.70;;;;;;5053652;28;20484;-59
2021/01/21 03:29:57;;;;;;;4.05;1.40;;;11.10;97.20;;;;;;5044066;28;20060;-59
2021/01/21 03:32:23;;;;;;;4.80;1.40;;;11.10;98.90;;;;;;5042632;28;20475;-59
2021/01/21 03:34:48;;;;;;;5.45;1.90;;;11.10;97.20;;;;;;5043397;28;20099;-59
2021/01/21 03:37:14;;;;;;;5.70;1.83;;;11.10;99.40;;;;;;5044188;28;20021;-59
2021/01/21 03:39:40;;;;;;;5.15;1.80;;;11.10;99.40;;;;;;5043805;28;20082;-59
2021/01/21 03:42:06;;;;;;;5.75;1.83;;;;;;;;;;5042739;28;20092;-59
2021/01/21 03:44:31;;;;;;;9.80;1.67;;;11.40;99.50;;;;;;5048086;28;20044;-59
2021/01/21 03:46:57;;;;;;;8.73;1.88;;;11.00;99.40;;;;;;5049178;28;20431;-59
2021/01/21 03:49:22;;;;;;;6.07;1.75;;;11.30;99.00;;;;;;5038728;28;20063;-59
2021/01/21 03:51:48;;;;;;;6.82;1.63;;;11.30;99.90;;;;;;5044882;28;20029;-59
2021/01/21 03:54:14;;;;;;;6.18;2.05;;;11.00;99.90;;;;;;5050347;28;20032;-59
2021/01/21 03:56:40;;;;;;;5.75;1.88;;;;;;;;;;5058417;28;20020;-59
2021/01/21 03:59:05;;;;;;;4.10;1.33;;;11.20;99.90;;;;;;5046642;28;20025;-59
2021/01/21 04:01:31;;;;;;;8.32;1.90;;;11.40;99.90;;;;;;5030380;28;20033;-59
2021/01/21 04:03:56;;;;;;;4.20;1.40;;;11.00;99.90;;;;;;5047085;28;20064;-59
2021/01/21 04:06:22;;;;;;;3.30;1.38;;;;;;;;;;5050481;28;20021;-59
2021/01/21 04:08:48;;;;;;;6.32;1.50;;;10.70;99.90;;;;;;5050199;28;20181;-59
2021/01/21 04:11:14;;;;;;;4.75;1.80;;;10.80;99.90;;;;;;5060687;28;20135;-59
2021/01/21 04:13:39;;;;;;;4.28;1.40;;;11.20;99.90;;;;;;5048254;28;20037;-58
2021/01/21 04:16:05;;;;;;;5.60;1.50;;;11.60;99.90;;;;;;5047956;28;20045;-59
2021/01/21 04:18:31;;;;;;;4.45;1.48;;;11.30;98.90;;;;;;5048496;28;20040;-59
2021/01/21 04:20:57;;;;;;;5.05;1.42;;;11.40;99.90;;;;;;5049396;28;20032;-58
2021/01/21 04:23:23;;;;;;;4.05;1.25;;;;;;;;;;5042275;28;20038;-59
2021/01/21 04:25:48;;;;;;;5.18;1.33;;;11.50;99.90;;;;;;5041158;28;20503;-59
2021/01/21 04:28:14;;;;;;;5.00;1.48;;;11.40;99.10;;;;;;5036862;28;20024;-58
2021/01/21 04:30:40;;;;;;;4.65;1.60;;;11.50;98.50;;;;;;5040404;28;20314;-59
2021/01/21 04:33:06;;;;;;;4.85;1.40;;;11.50;98.40;;;;;;5034081;28;20037;-59
2021/01/21 04:35:31;;;;;;;5.07;1.30;;;11.60;98.20;;;;;;5046785;28;20043;-59
2021/01/21 04:37:58;;;;;;;4.40;1.50;;;11.60;98.00;;;;;;5049043;28;20029;-59
2021/01/21 04:40:26;;;;;;;4.07;1.50;;;11.60;98.00;;;;;;5047237;28;20032;-59
2021/01/21 04:42:52;;;;;;;6.22;1.30;;;11.70;97.80;;;;;;5057948;28;20035;-59
2021/01/21 04:45:18;;;;;;;3.13;1.30;;;11.70;97.70;;;;;;5037801;28;20094;-59
2021/01/21 04:47:45;;;;;;;9.23;1.77;;;11.70;98.00;;;;;;5047303;28;20021;-59
2021/01/21 04:50:12;;;;;;;3.90;1.30;;;11.70;97.90;;;;;;5035507;28;20095;-59
2021/01/21 04:52:44;;;;;;;4.63;1.50;;;11.80;97.70;;;;;;5058545;28;20060;-59
2021/01/21 04:55:19;;;;;;;7.28;1.85;;;;;;;;;;5041698;28;20021;-59
2021/01/21 04:58:08;;;;;;;2.78;1.20;;;12.00;97.60;;;;;;5048989;28;20048;-59
2021/01/21 05:00:36;;;;;;;5.43;1.20;;;11.80;97.20;;;;;;5049095;28;20055;-59
2021/01/21 05:03:03;;;;;;;3.70;1.23;;;11.90;97.20;;;;;;5049371;28;20035;-59
2021/01/21 05:05:29;;;;;;;4.85;1.40;;;;;;;;;;5043543;28;20143;-59
2021/01/21 05:07:55;;;;;;;3.60;1.25;;;11.80;97.50;;;;;;5030417;28;20112;-59
2021/01/21 05:10:21;;;;;;;3.00;1.00;;;11.60;97.70;;;;;;5056118;28;20254;-59
2021/01/21 05:12:47;;;;;;;4.47;1.30;;;11.80;98.90;;;;;;5046087;28;20067;-59
2021/01/21 05:15:13;;;;;;;4.13;1.45;;;11.80;99.30;;;;;;5044690;28;20108;-59
2021/01/21 05:17:38;;;;;;;3.13;1.20;;;11.90;97.80;;;;;;5042384;28;20041;-59
2021/01/21 05:20:05;;;;;;;3.40;1.13;;;;;;;;;;5046857;28;20021;-59
2021/01/21 05:22:30;;;;;;;4.82;1.10;;;12.00;97.80;;;;;;5046218;28;20036;-59
2021/01/21 05:24:57;;;;;;;4.45;1.20;;;;;;;;;;5034279;28;20024;-59
2021/01/21 05:27:23;;;;;;;1.60;0.82;;;;;;;;;;5045751;28;20029;-59
2021/01/21 05:29:49;;;;;;;2.67;1.00;;;11.90;98.00;;;;;;5057669;28;20029;-59
2021/01/21 05:32:17;;;;;;;4.15;1.00;;;12.00;98.20;;;;;;5046800;28;20032;-59
2021/01/21 05:34:44;;;;;;;2.75;1.20;;;11.90;99.90;;;;;;5045656;28;20040;-59
2021/01/21 05:37:11;;;;;;;4.32;1.30;;;12.30;98.40;;;;;;5048391;28;20024;-59
2021/01/21 05:39:42;;;;;;;5.35;1.25;;;11.90;98.90;;;;;;5042146;28;20351;-59
2021/01/21 05:42:09;;;;;;;2.42;0.98;;;12.00;98.70;;;;;;5062269;28;20039;-59
2021/01/21 05:44:35;;;;;;;2.70;1.00;;;12.00;98.90;;;;;;5044187;28;20029;-59
2021/01/21 05:47:05;;;;;;;3.45;1.17;;;11.90;99.20;;;;;;5045896;28;20049;-59
2021/01/21 05:49:31;;;;;;;;;;;11.90;99.90;;;;;;5049015;28;20032;-59
2021/01/21 05:51:58;;;;;;;3.67;1.20;;;11.70;99.90;;;;;;5044292;28;19921;-59
2021/01/21 05:54:25;;;;;;;3.78;1.00;;;11.30;99.90;;;;;;5043303;28;20064;-59
2021/01/21 05:56:51;;;;;;;2.88;1.10;;;11.40;99.90;;;;;;5054296;28;20065;-59
2021/01/21 05:59:18;;;;;;;4.05;1.20;;;11.20;99.90;;;;;;5047218;28;20032;-59
2021/01/21 06:01:44;;;;;;;8.50;1.48;;;;;;;;;;5040877;28;20032;-59
2021/01/21 06:04:11;;;;;;;2.97;1.13;;;9.10;99.90;;;;;;5037484;28;20487;-61
2021/01/21 06:06:39;;;;;;;3.22;1.17;;;7.90;99.90;;;;;;5019637;28;20148;-61
2021/01/21 06:09:06;;;;;;;4.43;1.15;;;7.30;99.90;;;;;;5039422;28;20477;-61
2021/01/21 06:11:32;;;;;;;4.28;1.30;;;;;;;;;;5039286;28;20132;-61
2021/01/21 06:14:01;;;;;;;3.13;1.13;;;7.30;99.90;;;;;;5041922;28;20125;-61
2021/01/21 06:16:27;;;;;;;3.38;1.10;;;7.00;99.90;;;;;;5039671;28;20053;-61
2021/01/21 06:18:53;;;;;;;3.50;1.27;;;;;;;;;;5042014;28;20072;-59
2021/01/21 06:21:23;;;;;;;3.05;0.85;;;6.60;99.90;;;;;;5044745;28;20028;-59
2021/01/21 06:23:59;;;;;;;3.70;1.15;;;6.60;99.90;;;;;;5039664;28;20028;-59
2021/01/21 06:26:26;;;;;;;1.55;0.90;;;7.50;99.90;;;;;;5038763;28;20490;-59
2021/01/21 06:28:54;;;;;;;1.42;1.00;;;6.20;99.90;;;;;;5036631;28;20116;-59
2021/01/21 06:31:21;;;;;;;1.90;0.90;;;6.10;99.90;;;;;;5043210;28;20041;-59
2021/01/21 06:33:49;;;;;;;2.90;0.85;;;6.10;99.90;;;;;;5038260;28;20041;-60
2021/01/21 06:36:20;;;;;;;4.80;1.60;;;5.40;99.90;;;;;;5040290;28;20522;-60
2021/01/21 06:38:50;;;;;;;6.10;1.60;;;6.60;99.90;;;;;;5038541;28;20120;-60
2021/01/21 06:41:19;;;;;;;1.90;1.00;;;6.00;99.90;;;;;;5041443;28;20024;-60
2021/01/21 06:43:45;;;;;;;3.13;1.13;;;6.00;99.90;;;;;;5032527;28;20038;-60
2021/01/21 06:46:14;;;;;;;2.25;1.00;;;5.80;99.90;;;;;;5042819;28;20124;-60
2021/01/21 06:48:41;;;;;;;3.70;1.17;;;5.90;99.90;;;;;;5045386;28;20494;-60
2021/01/21 06:51:09;;;;;;;3.22;1.02;;;5.90;99.90;;;;;;5046297;28;20037;-60
2021/01/21 06:53:40;;;;;;;1.95;0.88;;;5.80;99.90;;;;;;5043629;28;20032;-61
2021/01/21 06:56:06;;;;;;;3.70;1.20;;;;;;;;;;5061068;28;20488;-60
2021/01/21 06:58:52;;;;;;;4.95;1.00;;;5.10;99.90;;;;;;5038890;28;20095;-60
2021/01/21 07:01:30;;;;;;;1.48;0.95;;;5.90;99.90;;;;;;5046299;28;20037;-60
2021/01/21 07:03:59;;;;;;;1.50;0.98;;;6.00;99.90;;;;;;5043192;28;20029;-59
2021/01/21 07:06:25;;;;;;;2.17;0.80;;;;;;;;;;5037206;28;20449;-59
2021/01/21 07:09:08;;;;;;;6.65;1.55;;;5.90;99.90;;;;;;5034775;28;20021;-59
2021/01/21 07:11:34;;;;;;;3.53;1.23;;;5.90;99.90;;;;;;5043861;28;20033;-59
2021/01/21 07:14:00;;;;;;;4.35;1.23;;;;;;;;;;5030681;28;20114;-60
2021/01/21 07:16:26;;;;;;;2.90;1.08;;;;;;;;;;5042816;28;20056;-60
2021/01/21 07:18:54;;;;;;;2.28;0.90;;;5.80;99.90;;;;;;5035045;28;20032;-60
2021/01/21 07:21:25;;;;;;;3.33;1.00;;;5.80;99.90;;;;;;5037996;28;20424;-60
2021/01/21 07:23:55;;;;;;;5.40;1.40;;;5.80;99.90;;;;;;5034086;28;20755;-60
2021/01/21 07:26:30;;;;;;;3.75;1.40;;;5.80;99.90;;;;;;5035844;28;20037;-59
2021/01/21 07:29:12;;;;;;;6.80;1.10;;;5.80;99.90;;;;;;5039795;28;20059;-59
2021/01/21 07:31:52;;;;;;;5.20;1.30;;;5.70;99.90;;;;;;5034061;28;20033;-60
2021/01/21 07:34:30;;;;;;;4.93;1.52;;;5.60;99.90;;;;;;5034371;28;20034;-60
2021/01/21 07:37:11;;;;;;;4.03;1.60;;;5.70;99.90;;;;;;5048178;28;20483;-60
2021/01/21 07:39:57;;;;;;;5.53;1.42;;;4.70;99.90;;;;;;5046684;28;20029;-60
2021/01/21 07:42:45;;;;;;;2.85;1.10;;;5.80;99.90;;;;;;5049377;28;20021;-59
2021/01/21 07:45:19;;;;;;;4.25;1.50;;;5.70;99.90;;;;;;5048295;28;20485;-59
2021/01/21 07:47:46;;;;;;;7.25;1.65;;;5.90;99.90;;;;;;5043800;28;20552;-59
2021/01/21 07:50:24;;;;;;;3.38;1.10;;;5.80;99.90;;;;;;5049191;28;20025;-59
2021/01/21 07:52:50;;;;;;;6.75;1.55;;;;;;;;;;5046431;28;20512;-59
2021/01/21 07:55:28;;;;;;;5.07;1.38;;;5.80;99.90;;;;;;5043170;28;20051;-59
2021/01/21 07:57:54;;;;;;;7.65;1.77;;;5.10;99.90;;;;;;5046953;28;20498;-59
2021/01/21 08:00:21;;;;;;;2.88;1.08;;;;;;;;;;5044264;28;20037;-59
2021/01/21 08:02:48;;;;;;;6.88;1.60;;;5.80;99.90;;;;;;5034866;28;20036;-60
2021/01/21 08:05:15;;;;;;;5.55;1.58;;;5.80;99.90;;;;;;5043151;28;20436;-59
2021/01/21 08:07:52;;;;;;;11.35;2.17;;;6.00;99.90;;;;;;5045849;28;20532;-61
2021/01/21 08:10:23;;;;;;;3.40;1.25;;;5.90;99.90;;;;;;5048522;28;20040;-59
2021/01/21 08:12:54;;;;;;;4.65;1.42;;;5.90;99.90;;;;;;5048711;28;20037;-59
2021/01/21 08:15:21;;;;;;;3.03;1.20;;;5.90;99.90;;;;;;5045004;28;20389;-59
2021/01/21 08:17:49;;;;;;;6.32;2.00;;;5.80;99.90;;;;;;5050276;28;20124;-60
2021/01/21 08:20:19;;;;;;;10.00;2.10;;;5.90;99.90;;;;;;5038394;28;20026;-60
2021/01/21 08:22:58;;;;;;;7.43;1.90;;;5.90;99.90;;;;;;5040041;28;20017;-60
2021/01/21 08:25:27;;;;;;;7.53;1.75;;;5.60;99.90;;;;;;5049225;28;20032;-60
2021/01/21 08:27:53;;;;;;;6.85;1.75;;;;;;;;;;5045548;28;20053;-59
2021/01/21 08:30:25;;;;;;;7.10;1.73;;;5.90;99.90;;;;;;5046054;28;20036;-59
2021/01/21 08:33:11;;;;;;;4.53;1.50;;;5.70;99.90;;;;;;5047053;28;20153;-59
2021/01/21 08:35:48;;;;;;;8.63;2.03;;;5.70;99.90;;;;;;5044542;28;20476;-59
2021/01/21 08:38:16;;;;;;;6.80;1.80;;;5.60;99.90;;;;;;5042170;28;20041;-60
2021/01/21 08:40:43;;;;;;;4.50;1.30;;;5.60;99.90;;;;;;5044671;28;20435;-59
2021/01/21 08:43:09;;;;;;;7.85;1.70;;;5.60;99.90;;;;;;5043329;28;20022;-59
2021/01/21 08:45:35;;;;;;;10.30;2.47;;;6.20;99.90;;;;;;5046196;28;20028;-60
2021/01/21 08:48:01;;;;;;;5.10;1.33;;;5.50;99.90;;;;;;5037045;28;20033;-59
2021/01/21 08:50:34;;;;;;;4.63;1.38;;;5.60;99.90;;;;;;5041488;28;20064;-59
2021/01/21 08:53:08;;;;;;;4.38;1.30;;;4.70;99.90;;;;;;5044602;28;20040;-59
2021/01/21 08:55:37;;;;;;;6.43;1.45;;;5.60;99.90;;;;;;5035640;28;20032;-60
2021/01/21 08:58:03;;;;;;;8.20;1.20;;;;;;;;;;5041837;28;20044;-59
2021/01/21 09:00:30;;;;;;;3.70;1.40;;;5.80;99.90;;;;;;5041137;28;20025;-60
2021/01/21 09:02:57;;;;;;;6.60;1.23;;;7.00;99.90;;;;;;5046704;28;20306;-59
2021/01/21 09:05:22;;;;;;;6.07;1.45;;;6.70;99.90;;;;;;5044241;28;20455;-60
2021/01/21 09:08:01;;;;;;;4.07;1.38;;;6.80;99.90;;;;;;5043307;28;20029;-59
2021/01/21 09:10:36;;;;;;;5.10;1.30;;;7.20;99.90;;;;;;5043152;28;20777;-59
2021/01/21 09:13:02;;;;;;;8.73;2.05;;;7.40;99.90;;;;;;5043527;28;20045;-59
2021/01/21 09:15:28;;;;;;;5.53;1.30;;;7.30;99.90;;;;;;5029902;28;20108;-59
2021/01/21 09:18:05;;;;;;;3.95;1.33;;;7.80;99.90;;;;;;5029573;28;20342;-59
2021/01/21 09:20:32;;;;;;;7.93;1.73;;;;;;;;;;5029180;28;20029;-59
2021/01/21 09:23:12;;;;;;;5.88;1.52;;;8.00;99.90;;;;;;5029059;28;20072;-59
2021/01/21 09:25:37;;;;;;;6.73;1.23;;;7.80;99.90;;;;;;5038812;28;20459;-59
2021/01/21 09:28:03;;;;;;;10.20;1.73;;;;;;;;;;5055288;28;20028;-59
2021/01/21 09:30:29;;;;;;;6.32;1.50;;;8.90;99.90;;;;;;5048917;28;20026;-59
2021/01/21 09:32:55;;;;;;;3.50;1.50;;;;;;;;;;5028468;28;20434;-59
2021/01/21 09:35:22;;;;;;;4.60;1.42;;;8.20;99.90;;;;;;5049601;28;20031;-59
2021/01/21 09:37:49;;;;;;;7.53;1.98;;;8.20;99.90;;;;;;5053057;28;20060;-59
2021/01/21 09:40:25;;;;;;;3.38;1.20;;;8.90;99.90;;;;;;5046562;28;20104;-60
2021/01/21 09:42:52;;;;;;;6.47;1.30;;;8.40;99.90;;;;;;5049648;28;20028;-59
2021/01/21 09:45:19;;;;;;;5.38;1.17;;;8.50;99.90;;;;;;5041318;28;20071;-59
2021/01/21 09:47:45;;;;;;;11.90;1.67;;;;;;;;;;5037290;28;20032;-59
2021/01/21 09:50:11;;;;;;;5.85;1.38;;;8.10;99.90;;;;;;5054145;28;20036;-59
2021/01/21 09:52:37;;;;;;;7.35;1.20;;;8.40;99.90;;;;;;5044382;28;20505;-60
2021/01/21 09:55:05;;;;;;;6.40;1.73;;;8.70;99.90;;;;;;5036550;28;20036;-59
2021/01/21 09:57:31;;;;;;;8.40;1.30;;;;;;;;;;5038953;28;20067;-59
2021/01/21 09:59:57;;;;;;;9.27;1.33;;;8.40;99.90;;;;;;5049510;28;20016;-59
2021/01/21 10:02:23;;;;;;;9.77;2.05;;;8.30;99.90;;;;;;5042723;28;20039;-59
2021/01/21 10:04:49;;;;;;;5.95;1.50;;;;;;;;;;5045865;28;20480;-59
2021/01/21 10:07:15;;;;;;;7.05;1.50;;;8.60;99.90;;;;;;5045008;28;20083;-59
2021/01/21 10:09:40;;;;;;;5.50;1.02;;;8.40;99.90;;;;;;5046243;28;20025;-59
2021/01/21 10:12:08;;;;;;;8.05;1.77;;;9.30;99.90;;;;;;5046453;28;20523;-57
2021/01/21 10:14:35;;;;;;;7.43;1.73;;;9.30;99.90;;;;;;5031621;28;20025;-59
2021/01/21 10:17:07;;;;;;;11.20;1.70;;;9.70;99.90;;;;;;5034561;28;20045;-59
2021/01/21 10:19:33;;;;;;;6.13;1.30;;;;;;;;;;5033395;28;20472;-59
2021/01/21 10:22:00;;;;;;;4.88;1.48;;;9.30;99.90;;;;;;5028923;28;20037;-59
2021/01/21 10:24:26;;;;;;;7.88;1.10;;;9.30;99.90;;;;;;5038046;28;20044;-59
2021/01/21 10:26:52;;;;;;;5.97;1.60;;;;;;;;;;5052380;28;20392;-59
2021/01/21 10:29:18;;;;;;;4.72;1.30;;;;;;;;;;5033721;28;20033;-59
2021/01/21 10:31:45;;;;;;;4.55;1.30;;;;;;;;;;5046223;28;20043;-59
2021/01/21 10:34:10;;;;;;;9.20;1.80;;;;;;;;;;5046277;28;20025;-59
2021/01/21 10:36:37;;;;;;;4.82;1.67;;;;;;;;;;5049957;28;20039;-59
2021/01/21 10:39:04;;;;;;;7.22;1.58;;;9.30;99.90;;;;;;5033922;28;20063;-60
2021/01/21 10:41:30;;;;;;;7.60;1.50;;;;;;;;;;5042833;28;20538;-59
2021/01/21 10:43:56;;;;;;;8.85;1.90;;;;;;;;;;5044872;28;20025;-60
2021/01/21 10:46:22;;;;;;;7.30;1.40;;;;;;;;;;5043163;28;20033;-60
2021/01/21 10:48:48;;;;;;;10.98;1.80;;;;;;;;;;5042587;28;20082;-59
2021/01/21 10:51:15;;;;;;;4.80;1.15;;;;;;;;;;5043266;28;20040;-59
2021/01/21 10:53:40;;;;;;;7.80;1.70;;;;;;;;;;5045235;28;20035;-59
2021/01/21 10:56:06;;;;;;;5.85;1.92;;;9.50;99.90;;;;;;5045985;28;20460;-60
2021/01/21 10:58:32;;;;;;;6.93;1.40;;;10.30;99.90;;;;;;5045170;28;20047;-60
2021/01/21 11:00:58;;;;;;;5.60;1.45;;;10.50;99.90;;;;;;5036418;28;20500;-57
2021/01/21 11:03:24;;;;;;;3.78;1.48;;;;;;;;;;5052539;28;20071;-59
2021/01/21 11:05:50;;;;;;;12.35;1.67;;;;;;;;;;5045310;28;20052;-59
2021/01/21 11:08:17;;;;;;;6.07;1.55;;;;;;;;;;5046576;28;20124;-59
2021/01/21 11:10:43;;;;;;;5.50;1.60;;;8.80;99.90;;;;;;5045388;28;20109;-59
2021/01/21 11:13:16;;;;;;;9.23;1.88;;;;;;;;;;5051579;28;20037;-59
2021/01/21 11:15:42;;;;;;;5.53;1.30;;;;;;;;;;5056462;28;20025;-60
2021/01/21 11:18:08;;;;;;;6.95;2.28;;;;;;;;;;5043677;28;20086;-59
2021/01/21 11:20:34;;;;;;;12.63;2.38;;;;;;;;;;5036006;28;20115;-60
2021/01/21 11:23:01;;;;;;;7.05;1.65;;;9.30;99.90;;;;;;5052844;28;20235;-60
2021/01/21 11:25:26;;;;;;;6.95;1.50;;;9.80;99.90;;;;;;5045504;28;20433;-59
2021/01/21 11:27:53;;;;;;;5.50;1.67;;;;;;;;;;5045129;28;20051;-59
2021/01/21 11:30:19;;;;;;;7.10;1.70;;;;;;;;;;5045167;28;20037;-58
2021/01/21 11:32:45;;;;;;;6.38;1.40;;;;;;;;;;5040023;28;20043;-57
2021/01/21 11:35:11;;;;;;;9.20;2.90;;;;;;;;;;5047950;28;20033;-60
2021/01/21 11:37:37;;;;;;;5.00;1.60;;;;;;;;;;5047691;28;20433;-59
2021/01/21 11:40:04;;;;;;;3.45;1.08;;;9.50;99.90;;;;;;5048796;28;20099;-59
2021/01/21 11:42:30;;;;;;;6.97;1.33;;;9.70;99.90;;;;;;5048838;28;20397;-60
2021/01/21 11:44:55;;;;;;;3.75;1.30;;;8.90;99.90;;;;;;5047593;28;20032;-60
2021/01/21 11:47:22;;;;;;;7.90;1.67;;;9.00;99.90;;;;;;5043283;28;20036;-59
2021/01/21 11:49:49;;;;;;;5.78;1.33;;;9.10;99.90;;;;;;5045634;28;20033;-60
2021/01/21 11:52:15;;;;;;;4.05;1.70;;;9.30;99.90;;;;;;5045428;28;20434;-57
2021/01/21 11:54:40;;;;;;;4.38;1.33;;;9.40;99.90;;;;;;5045287;28;20029;-57
2021/01/21 11:57:06;;;;;;;3.22;1.20;;;9.00;99.90;;;;;;5047476;28;20123;-59
2021/01/21 11:59:32;;;;;;;2.03;1.00;;;8.90;99.90;;;;;;5046652;28;20036;-59
2021/01/21 12:01:58;;;;;;;4.68;1.55;;;;;;;;;;5047825;28;20114;-60
2021/01/21 12:04:24;;;;;;;3.00;1.05;;;;;;;;;;5054799;28;20381;-59
2021/01/21 12:06:50;;;;;;;3.10;1.10;;;9.90;99.90;;;;;;5042545;28;20025;-59
2021/01/21 12:09:16;;;;;;;6.78;1.90;;;;;;;;;;5044210;28;20043;-59
2021/01/21 12:11:42;;;;;;;2.67;1.25;;;;;;;;;;5040754;28;20033;-59
2021/01/21 12:14:07;;;;;;;6.82;1.83;;;8.90;99.90;;;;;;5044704;28;20058;-59
2021/01/21 12:16:33;;;;;;;5.18;1.50;;;;;;;;;;5040984;28;20431;-59
2021/01/21 12:18:59;;;;;;;3.88;1.20;;;;;;;;;;5048526;28;20500;-59
2021/01/21 12:21:27;;;;;;;5.03;1.40;;;;;;;;;;5040566;28;20037;-59
2021/01/21 12:23:53;;;;;;;2.70;1.20;;;;;;;;;;5036352;28;20020;-59
2021/01/21 12:26:19;;;;;;;4.90;1.40;;;;;;;;;;5037847;28;20514;-59
2021/01/21 12:28:45;;;;;;;3.05;1.05;;;;;;;;;;5049517;28;20112;-59
2021/01/21 12:31:12;;;;;;;3.75;1.25;;;;;;;;;;5062504;28;20031;-59
2021/01/21 12:33:38;;;;;;;7.05;1.90;;;;;;;;;;5062271;28;20036;-59
2021/01/21 12:36:05;;;;;;;6.07;1.23;;;8.50;99.90;;;;;;5048604;28;20116;-60
2021/01/21 12:38:31;;;;;;;3.58;1.33;;;;;;;;;;5046762;28;20063;-59
2021/01/21 12:40:56;;;;;;;7.50;1.73;;;;;;;;;;5050018;28;20049;-59
2021/01/21 12:43:23;;;;;;;6.00;1.58;;;;;;;;;;5049128;28;20536;-59
2021/01/21 12:45:49;;;;;;;5.85;1.55;;;9.10;99.90;;;;;;5043712;28;20094;-60
2021/01/21 12:48:18;;;;;;;3.25;1.30;;;8.80;99.90;;;;;;5047819;28;20027;-59
2021/01/21 12:50:44;;;;;;;3.75;1.17;;;;;;;;;;5051265;28;20021;-59
2021/01/21 12:53:10;;;;;;;2.83;1.10;;;;;;;;;;5056957;28;20093;-58
2021/01/21 12:55:37;;;;;;;3.63;1.15;;;9.60;99.40;;;;;;5045101;28;20028;-58
2021/01/21 12:58:03;;;;;;;5.68;1.40;;;9.60;99.90;;;;;;5049647;28;20047;-60
2021/01/21 13:00:29;;;;;;;3.22;1.17;;;;;;;;;;5051369;28;20193;-58
2021/01/21 13:02:55;;;;;;;4.75;1.40;;;9.20;99.90;;;;;;5046044;28;20072;-60
2021/01/21 13:05:21;;;;;;;6.65;1.40;;;;;;;;;;5047695;28;20486;-60
2021/01/21 13:07:47;;;;;;;2.38;1.00;;;;;;;;;;5050118;28;20092;-59
2021/01/21 13:10:13;;;;;;;6.32;1.50;;;9.00;99.90;;;;;;5047276;28;20401;-59
2021/01/21 13:12:39;;;;;;;8.65;1.55;;;;;;;;;;5045851;28;20483;-60
2021/01/21 13:15:06;;;;;;;6.50;1.60;;;8.60;99.90;;;;;;5045317;28;20021;-60
2021/01/21 13:17:32;;;;;;;6.78;1.50;;;;;;;;;;5042529;28;20057;-59
2021/01/21 13:19:58;;;;;;;2.63;1.10;;;9.60;99.90;;;;;;5043254;28;20043;-60
2021/01/21 13:22:24;;;;;;;2.13;1.00;;;;;;;;;;5044187;28;20037;-60